Time;durP1;ratioP1;P1;durP2;ratioP2;P2;SDS_P1;SDS_P2;PMS_P1;PMS_P2;Temp;Humidity;BMP_temperature;BMP_pressure;BME280_temperature;BME280_humidity;BME280_pressure;Samples;Min_cycle;Max_cycle;Signal;HPM_P1;HPM_P2
2023/09/12 00:00:07;;;;;;;4.22;2.78;;;;;;;12.13;88.76;93258.78;5031943;28;20072;-75
2023/09/12 00:02:34;;;;;;;4.45;2.42;;;;;;;12.11;88.73;93267.75;5029297;28;20049;-75
2023/09/12 00:05:01;;;;;;;8.57;2.83;;;;;;;11.96;88.82;93250.06;5026926;28;20041;-75
2023/09/12 00:07:28;;;;;;;16.73;3.95;;;;;;;12.03;89.29;93258.50;5030413;28;20056;-75
2023/09/12 00:09:54;;;;;;;6.28;2.78;;;;;;;11.99;89.37;93265.09;5026832;28;20459;-75
2023/09/12 00:12:24;;;;;;;5.78;2.90;;;;;;;11.94;89.82;93264.97;5025582;28;20055;-75
2023/09/12 00:14:52;;;;;;;4.97;2.58;;;;;;;11.76;90.21;93249.31;5027896;28;20045;-75
2023/09/12 00:17:19;;;;;;;6.40;2.55;;;;;;;11.83;90.06;93261.31;5026402;28;20045;-75
2023/09/12 00:19:46;;;;;;;5.40;2.70;;;;;;;11.75;90.85;93262.38;5038333;28;20468;-75
2023/09/12 00:22:13;;;;;;;4.18;2.65;;;;;;;11.74;90.59;93261.63;5027259;28;20041;-75
2023/09/12 00:24:39;;;;;;;8.55;3.63;;;;;;;11.69;90.43;93263.25;5027053;28;20499;-75
2023/09/12 00:27:07;;;;;;;3.50;2.45;;;;;;;11.69;91.08;93260.66;5027753;28;20050;-75
2023/09/12 00:29:34;;;;;;;4.47;2.50;;;;;;;11.73;91.02;93266.97;5031110;28;20050;-75
2023/09/12 00:32:02;;;;;;;4.70;2.92;;;;;;;11.68;90.63;93262.47;5027133;28;20507;-74
2023/09/12 00:34:28;;;;;;;4.75;2.28;;;;;;;11.70;90.60;93269.97;5026548;28;20100;-75
2023/09/12 00:36:55;;;;;;;5.45;2.40;;;;;;;11.75;90.60;93273.47;5029345;28;20045;-75
2023/09/12 00:39:22;;;;;;;4.40;2.60;;;;;;;11.74;90.48;93274.47;5026705;28;20049;-76
2023/09/12 00:41:48;;;;;;;6.88;2.65;;;;;;;11.74;89.87;93278.81;5029491;28;20491;-76
2023/09/12 00:44:15;;;;;;;3.60;2.20;;;;;;;11.75;90.00;93275.25;5026139;28;20042;-76
2023/09/12 00:46:42;;;;;;;4.70;2.42;;;;;;;11.71;89.77;93280.03;5029681;28;20046;-76
2023/09/12 00:49:11;;;;;;;6.13;2.47;;;;;;;11.60;90.50;93265.31;5031003;28;20095;-76
2023/09/12 00:51:38;;;;;;;5.50;2.88;;;;;;;11.68;90.80;93271.97;5028242;28;20049;-76
2023/09/12 00:54:05;;;;;;;4.65;2.33;;;;;;;11.65;90.47;93278.34;5029712;28;20053;-76
2023/09/12 00:56:32;;;;;;;3.70;2.45;;;;;;;11.53;90.61;93267.19;5030925;28;20111;-76
2023/09/12 00:59:00;;;;;;;5.22;2.47;;;;;;;11.59;90.76;93274.03;5037963;28;20053;-76
2023/09/12 01:01:26;;;;;;;6.35;2.47;;;;;;;11.48;91.28;93275.53;5039217;28;20466;-76
2023/09/12 01:03:53;;;;;;;3.35;2.45;;;;;;;11.47;91.48;93279.91;5037262;28;20087;-76
2023/09/12 01:06:25;;;;;;;6.07;2.63;;;;;;;11.31;91.28;93252.16;5040064;28;20045;-76
2023/09/12 01:08:52;;;;;;;4.88;2.30;;;;;;;11.49;90.99;93277.88;5038470;28;20128;-76
2023/09/12 01:11:21;;;;;;;4.70;2.33;;;;;;;11.44;91.49;93280.31;5038443;28;20037;-76
2023/09/12 01:13:47;;;;;;;4.70;2.67;;;;;;;11.42;92.00;93278.94;5039221;28;20103;-76
2023/09/12 01:16:14;;;;;;;4.80;2.92;;;;;;;11.45;91.74;93291.41;5039695;28;20094;-76
2023/09/12 01:18:42;;;;;;;3.88;2.40;;;;;;;11.42;91.42;93279.75;5035862;28;20103;-76
2023/09/12 01:21:42;;;;;;;5.18;3.03;;;;;;;11.45;91.60;93286.25;5030285;28;20135;-75
2023/09/12 01:24:34;;;;;;;3.97;2.45;;;;;;;11.37;92.09;93289.88;5029979;28;20050;-75
2023/09/12 01:27:24;;;;;;;6.05;3.20;;;;;;;11.34;91.74;93285.19;5033452;28;20450;-75
2023/09/12 01:29:55;;;;;;;6.32;2.33;;;;;;;11.28;nan;93284.22;5030219;28;20045;-75
2023/09/12 01:32:22;;;;;;;4.60;2.35;;;;;;;11.28;91.87;93286.78;5030007;28;20514;-74
2023/09/12 01:34:49;;;;;;;4.75;2.20;;;;;;;11.27;91.38;93289.56;5032136;28;20775;-75
2023/09/12 01:37:16;;;;;;;5.45;3.17;;;;;;;11.27;91.36;93284.44;5032079;28;20045;-75
2023/09/12 01:39:43;;;;;;;4.88;2.30;;;;;;;11.17;91.61;93272.88;5032160;28;20045;-76
2023/09/12 01:42:17;;;;;;;4.28;2.50;;;;;;;11.22;91.91;93290.97;5030371;28;20057;-75
2023/09/12 01:44:45;;;;;;;3.38;2.22;;;;;;;11.15;91.82;93279.97;5029727;28;20054;-74
2023/09/12 01:47:13;;;;;;;3.95;2.47;;;;;;;11.11;92.53;93283.97;5030191;28;20183;-75
2023/09/12 01:49:43;;;;;;;3.92;2.40;;;;;;;11.02;91.94;93267.25;5033596;28;20049;-75
2023/09/12 01:52:10;;;;;;;4.18;2.45;;;;;;;11.11;92.12;93285.75;5031898;28;20094;-75
2023/09/12 01:54:39;;;;;;;5.80;2.70;;;;;;;11.05;92.47;93280.47;5031158;28;20053;-75
2023/09/12 01:57:06;;;;;;;5.82;3.08;;;;;;;10.69;92.91;93243.38;5037885;28;20055;-76
2023/09/12 01:59:34;;;;;;;4.97;2.35;;;;;;;10.99;93.33;93291.59;5029585;28;20049;-76
2023/09/12 02:02:01;;;;;;;4.38;2.58;;;;;;;11.00;93.16;93284.66;5039627;28;20087;-76
2023/09/12 02:04:28;;;;;;;2.67;1.92;;;;;;;11.00;92.91;93285.44;5036279;28;20539;-76
2023/09/12 02:06:54;;;;;;;5.53;2.42;;;;;;;11.01;93.49;93288.81;5033745;28;20049;-76
2023/09/12 02:09:21;;;;;;;5.75;2.65;;;;;;;10.99;93.13;93293.38;5037613;28;20090;-76
2023/09/12 02:11:49;;;;;;;4.55;2.65;;;;;;;10.97;93.20;93298.72;5037324;28;20095;-75
2023/09/12 02:14:17;;;;;;;5.55;2.70;;;;;;;10.90;94.59;93290.28;5036579;28;20248;-75
2023/09/12 02:16:45;;;;;;;4.93;2.60;;;;;;;10.92;93.95;93296.78;5035997;28;21042;-75
2023/09/12 02:19:12;;;;;;;3.28;2.50;;;;;;;10.88;94.04;93293.03;5037671;28;20045;-75
2023/09/12 02:21:39;;;;;;;5.68;2.42;;;;;;;10.91;94.47;93292.63;5040386;28;20095;-75
2023/09/12 02:24:06;;;;;;;4.75;2.65;;;;;;;10.86;94.63;93291.69;5038223;28;20037;-76
2023/09/12 02:26:35;;;;;;;3.97;2.53;;;;;;;10.87;93.93;93286.34;5038929;28;20045;-76
2023/09/12 02:29:03;;;;;;;3.80;2.45;;;;;;;10.81;93.68;93295.69;5037363;28;20132;-76
2023/09/12 02:31:29;;;;;;;4.65;2.75;;;;;;;10.77;93.86;93289.38;5029989;28;20041;-76
2023/09/12 02:33:57;;;;;;;5.43;2.70;;;;;;;10.80;93.67;93290.75;5039782;28;20543;-76
2023/09/12 02:36:24;;;;;;;3.85;2.65;;;;;;;10.75;93.79;93291.38;5035807;28;20049;-76
2023/09/12 02:38:51;;;;;;;3.88;2.40;;;;;;;10.74;94.47;93294.16;5027979;28;20832;-76
2023/09/12 02:41:18;;;;;;;6.30;2.85;;;;;;;10.71;94.40;93295.34;5031062;28;21046;-76
2023/09/12 02:43:44;;;;;;;4.80;2.50;;;;;;;10.68;94.95;93299.13;5038242;28;20045;-75
2023/09/12 02:46:11;;;;;;;4.70;2.63;;;;;;;10.66;94.43;93297.75;5036830;28;20044;-76
2023/09/12 02:48:38;;;;;;;5.88;2.70;;;;;;;10.69;94.24;93297.31;5037978;28;20073;-75
2023/09/12 02:51:06;;;;;;;6.03;2.85;;;;;;;10.66;94.52;93298.53;5037226;28;20049;-75
2023/09/12 02:53:32;;;;;;;5.60;2.60;;;;;;;10.59;94.61;93292.66;5038289;28;20486;-74
2023/09/12 02:55:59;;;;;;;6.60;2.75;;;;;;;10.49;95.04;93279.47;5038866;28;20057;-74
2023/09/12 02:58:26;;;;;;;5.28;2.60;;;;;;;10.56;95.12;93287.94;5036836;28;20057;-75
2023/09/12 03:00:54;;;;;;;5.20;2.88;;;;;;;10.51;95.35;93288.53;5037357;28;20041;-75
2023/09/12 03:03:21;;;;;;;6.43;2.40;;;;;;;10.54;95.25;93292.47;5037591;28;20080;-75
2023/09/12 03:05:47;;;;;;;5.18;2.75;;;;;;;10.50;95.52;93292.09;5037185;28;20049;-76
2023/09/12 03:08:16;;;;;;;5.18;2.70;;;;;;;10.55;94.73;93296.63;5037477;28;20040;-75
2023/09/12 03:10:43;;;;;;;6.40;2.60;;;;;;;10.52;95.12;93295.25;5037751;28;20083;-75
2023/09/12 03:13:12;;;;;;;5.90;2.45;;;;;;;10.49;94.92;93293.09;5026553;28;20573;-76
2023/09/12 03:15:38;;;;;;;4.97;3.05;;;;;;;10.48;95.27;93296.69;5035035;28;20064;-76
2023/09/12 03:18:06;;;;;;;4.00;2.38;;;;;;;10.45;95.76;93294.50;5032570;28;20045;-76
2023/09/12 03:20:33;;;;;;;5.65;2.13;;;;;;;10.37;96.28;93295.50;5028820;28;20073;-76
2023/09/12 03:22:59;;;;;;;5.78;2.47;;;;;;;10.37;96.30;93298.06;5034649;28;20049;-74
2023/09/12 03:25:27;;;;;;;4.22;2.78;;;;;;;10.35;96.28;93294.94;5035202;28;20049;-74
2023/09/12 03:27:54;;;;;;;3.88;2.88;;;;;;;10.37;95.97;93299.88;5037341;28;20507;-75
2023/09/12 03:30:21;;;;;;;5.70;3.53;;;;;;;10.36;96.28;93300.84;5032921;28;20052;-75
2023/09/12 03:32:48;;;;;;;4.50;2.72;;;;;;;10.36;96.32;93303.41;5036990;28;20045;-75
2023/09/12 03:35:14;;;;;;;6.65;2.92;;;;;;;10.31;96.99;93298.91;5027933;28;20526;-75
2023/09/12 03:37:42;;;;;;;5.97;3.50;;;;;;;10.21;96.97;93298.53;5036214;28;20041;-75
2023/09/12 03:40:11;;;;;;;6.80;3.33;;;;;;;10.29;96.64;93308.59;5033698;28;20517;-74
2023/09/12 03:42:39;;;;;;;11.38;3.83;;;;;;;10.23;96.60;93307.63;5035537;28;20088;-74
2023/09/12 03:45:07;;;;;;;7.32;3.80;;;;;;;10.21;96.78;93309.63;5026488;28;20087;-75
2023/09/12 03:47:33;;;;;;;5.57;3.20;;;;;;;10.21;97.08;93319.09;5037256;28;20108;-75
2023/09/12 03:50:00;;;;;;;5.60;2.70;;;;;;;10.21;97.30;93317.31;5034651;28;21589;-75
2023/09/12 03:52:27;;;;;;;6.93;2.70;;;;;;;10.21;96.85;93311.38;5033259;28;20046;-75
2023/09/12 03:54:53;;;;;;;5.72;3.17;;;;;;;10.24;96.59;93314.31;5035931;28;20111;-75
2023/09/12 03:57:21;;;;;;;5.53;3.15;;;;;;;10.24;96.89;93324.59;5032750;28;20049;-75
2023/09/12 03:59:51;;;;;;;5.40;2.92;;;;;;;10.24;96.52;93318.69;5036305;28;20556;-74
2023/09/12 04:02:17;;;;;;;7.15;3.05;;;;;;;10.20;96.69;93317.50;5032346;28;20052;-75
2023/09/12 04:04:44;;;;;;;6.30;2.92;;;;;;;10.17;97.56;93313.56;5037711;28;20040;-75
2023/09/12 04:07:11;;;;;;;4.85;3.05;;;;;;;10.08;97.34;93304.53;5034602;28;20041;-75
2023/09/12 04:09:37;;;;;;;7.95;2.95;;;;;;;10.05;97.75;93310.88;5035903;28;20422;-75
2023/09/12 04:12:06;;;;;;;9.38;3.28;;;;;;;9.96;97.64;93278.72;5030292;28;20040;-74
2023/09/12 04:14:33;;;;;;;5.97;3.35;;;;;;;10.18;97.38;93311.81;5032430;28;20040;-74
2023/09/12 04:17:01;;;;;;;11.38;3.60;;;;;;;10.19;96.57;93318.50;5030846;28;20068;-76
2023/09/12 04:19:28;;;;;;;9.63;3.70;;;;;;;10.18;96.44;93317.72;5029569;28;20048;-76
2023/09/12 04:21:54;;;;;;;7.10;3.00;;;;;;;10.12;96.53;93318.53;5045174;28;20099;-75
2023/09/12 04:24:21;;;;;;;7.97;3.40;;;;;;;10.09;96.84;93314.59;5031329;28;20458;-75
2023/09/12 04:26:48;;;;;;;6.72;3.05;;;;;;;10.09;97.04;93316.38;5030376;28;20054;-75
2023/09/12 04:29:14;;;;;;;6.95;3.35;;;;;;;10.12;97.16;93321.09;5033343;28;20040;-75
2023/09/12 04:31:41;;;;;;;7.22;3.40;;;;;;;10.11;97.27;93324.66;5034475;28;20534;-75
2023/09/12 04:34:09;;;;;;;7.57;3.65;;;;;;;10.04;97.45;93319.53;5036548;28;20138;-74
2023/09/12 04:36:36;;;;;;;6.90;3.58;;;;;;;10.05;97.53;93315.22;5033811;28;20457;-75
2023/09/12 04:39:03;;;;;;;8.63;3.47;;;;;;;10.07;98.11;93333.75;5032225;28;20118;-74
2023/09/12 04:41:29;;;;;;;5.63;3.40;;;;;;;10.09;97.90;93326.66;5032349;28;20106;-75
2023/09/12 04:43:57;;;;;;;6.28;3.10;;;;;;;10.09;98.35;93327.41;5031265;28;21023;-75
2023/09/12 04:46:23;;;;;;;6.03;2.88;;;;;;;10.10;98.42;93331.56;5035608;28;20122;-75
2023/09/12 04:48:50;;;;;;;4.55;3.00;;;;;;;10.09;99.45;93322.28;5031201;28;20115;-75
2023/09/12 04:51:18;;;;;;;6.57;3.38;;;;;;;9.90;99.58;93303.41;5030896;28;20096;-74
2023/09/12 04:53:45;;;;;;;9.88;3.70;;;;;;;10.16;99.68;93333.34;5036436;28;20049;-76
2023/09/12 04:56:11;;;;;;;6.85;4.20;;;;;;;10.20;100.00;93331.16;5049167;28;20057;-74
2023/09/12 04:58:38;;;;;;;5.68;3.65;;;;;;;10.28;100.00;93320.63;5049503;28;20049;-74
2023/09/12 05:01:05;;;;;;;8.75;4.07;;;;;;;10.35;99.66;93320.59;5048481;28;20049;-75
2023/09/12 05:03:33;;;;;;;8.15;3.70;;;;;;;10.50;98.73;93322.13;5031632;28;20450;-75
2023/09/12 05:06:00;;;;;;;7.32;4.05;;;;;;;10.58;98.65;93321.09;5029157;28;20049;-76
2023/09/12 05:08:28;;;;;;;7.32;4.10;;;;;;;10.73;99.05;93334.47;5029861;28;20053;-76
2023/09/12 05:10:55;;;;;;;7.15;3.95;;;;;;;10.80;99.15;93334.41;5032441;28;20103;-74
2023/09/12 05:13:22;;;;;;;7.55;3.90;;;;;;;10.91;98.04;93330.38;5032507;28;20129;-74
2023/09/12 05:15:49;;;;;;;5.50;3.47;;;;;;;11.01;97.96;93329.94;5040524;28;20053;-75
2023/09/12 05:18:15;;;;;;;6.80;4.10;;;;;;;11.06;98.05;93336.00;5048553;28;20045;-74
2023/09/12 05:20:42;;;;;;;8.48;3.85;;;;;;;11.09;97.73;93321.97;5035521;28;20447;-74
2023/09/12 05:23:09;;;;;;;6.97;3.60;;;;;;;11.27;96.92;93334.09;5045039;28;20499;-74
2023/09/12 05:25:37;;;;;;;7.90;4.40;;;;;;;11.36;96.83;93332.03;5031680;28;20045;-74
2023/09/12 05:28:05;;;;;;;7.10;3.83;;;;;;;11.43;96.72;93322.47;5029826;28;20053;-74
2023/09/12 05:30:32;;;;;;;6.88;3.78;;;;;;;11.52;95.41;93317.84;5030477;28;20500;-74
2023/09/12 05:32:58;;;;;;;6.80;4.18;;;;;;;11.71;94.85;93330.75;5031252;28;20507;-75
2023/09/12 05:35:25;;;;;;;7.70;3.90;;;;;;;11.74;98.68;93332.88;5032189;28;20049;-74
2023/09/12 05:37:52;;;;;;;5.82;3.85;;;;;;;11.60;98.28;93330.44;5033968;28;20050;-75
2023/09/12 05:40:19;;;;;;;6.47;3.38;;;;;;;11.76;95.94;93341.94;5036999;28;20565;-74
2023/09/12 05:42:47;;;;;;;7.55;3.50;;;;;;;11.92;94.25;93326.16;5031818;28;20482;-75
2023/09/12 05:45:14;;;;;;;5.53;3.97;;;;;;;11.89;97.72;93317.88;5031072;28;20057;-75
2023/09/12 05:47:40;;;;;;;7.57;4.05;;;;;;;11.98;94.77;93323.50;5032361;28;20072;-75
2023/09/12 05:50:08;;;;;;;7.00;4.25;;;;;;;12.15;96.38;93333.25;5031738;28;20049;-74
2023/09/12 05:52:34;;;;;;;7.95;4.57;;;;;;;12.25;95.90;93337.88;5035152;28;20068;-74
2023/09/12 05:55:01;;;;;;;9.57;5.18;;;;;;;12.30;95.99;93332.88;5031836;28;20053;-74
2023/09/12 05:57:28;;;;;;;8.15;4.47;;;;;;;12.38;95.63;93330.03;5031408;28;20119;-74
2023/09/12 05:59:59;;;;;;;7.88;4.53;;;;;;;12.44;94.95;93336.06;5029726;28;20503;-74
2023/09/12 06:02:26;;;;;;;8.50;5.30;;;;;;;12.54;93.84;93333.78;5029798;28;20053;-74
2023/09/12 06:04:53;;;;;;;11.20;7.53;;;;;;;12.66;93.03;93338.19;5031055;28;20049;-74
2023/09/12 06:07:20;;;;;;;9.82;5.78;;;;;;;12.86;93.51;93339.72;5033127;28;20057;-74
2023/09/12 06:09:47;;;;;;;8.93;5.82;;;;;;;13.03;92.49;93339.84;5029139;28;20107;-74
2023/09/12 06:12:13;;;;;;;11.38;5.90;;;;;;;13.17;90.89;93336.06;5029690;28;20473;-74
2023/09/12 06:14:40;;;;;;;7.57;4.00;;;;;;;13.46;88.88;93346.56;5048146;28;20052;-74
2023/09/12 06:17:08;;;;;;;8.57;4.90;;;;;;;13.65;88.62;93338.69;5031209;28;20049;-74
2023/09/12 06:19:35;;;;;;;13.93;5.18;;;;;;;13.83;87.34;93335.19;5029036;28;20049;-74
2023/09/12 06:22:02;;;;;;;10.65;6.18;;;;;;;14.01;86.17;93338.66;5030694;28;20462;-74
2023/09/12 06:24:28;;;;;;;10.77;6.43;;;;;;;14.18;85.22;93341.34;5030161;28;20053;-74
2023/09/12 06:26:55;;;;;;;9.25;5.80;;;;;;;14.33;86.57;93350.38;5027768;28;20050;-74
2023/09/12 06:29:22;;;;;;;12.50;5.30;;;;;;;14.47;85.95;93346.53;5028658;28;20050;-74
2023/09/12 06:31:48;;;;;;;16.83;5.88;;;;;;;14.67;86.20;93351.28;5028469;28;20052;-74
2023/09/12 06:34:16;;;;;;;9.00;5.28;;;;;;;14.88;84.80;93354.25;5031853;28;20095;-74
2023/09/12 06:36:44;;;;;;;11.07;5.93;;;;;;;15.10;82.11;93354.34;5030818;28;20138;-74
2023/09/12 06:39:11;;;;;;;10.80;5.82;;;;;;;15.28;81.68;93352.56;5042167;28;20538;-74
2023/09/12 06:41:38;;;;;;;17.25;4.68;;;;;;;15.37;79.42;93355.56;5038214;28;20130;-74
2023/09/12 06:44:06;;;;;;;13.23;4.78;;;;;;;15.57;79.39;93352.50;5038819;28;20084;-74
2023/09/12 06:46:35;;;;;;;11.43;3.45;;;;;;;15.58;75.89;93343.69;5029816;28;20419;-75
2023/09/12 06:49:02;;;;;;;12.48;3.53;;;;;;;15.91;76.73;93356.81;5035766;28;20056;-75
2023/09/12 06:51:30;;;;;;;15.80;3.38;;;;;;;16.11;74.60;93345.97;5029671;28;20570;-74
2023/09/12 06:53:57;;;;;;;10.13;4.30;;;;;;;16.45;71.96;93357.22;5031659;28;20045;-74
2023/09/12 06:56:24;;;;;;;10.00;3.42;;;;;;;16.64;69.96;93365.47;5034379;28;20107;-74
2023/09/12 06:58:53;;;;;;;8.73;2.55;;;;;;;16.72;68.12;93359.88;5028500;28;20045;-75
2023/09/12 07:01:19;;;;;;;8.85;3.47;;;;;;;16.94;69.46;93359.81;5029564;28;20443;-75
2023/09/12 07:03:46;;;;;;;8.50;3.20;;;;;;;17.18;68.94;93363.94;5033790;28;20102;-75
2023/09/12 07:06:13;;;;;;;8.27;3.53;;;;;;;17.41;67.26;93372.44;5032420;28;20052;-75
2023/09/12 07:08:41;;;;;;;6.88;2.67;;;;;;;17.63;66.06;93370.53;5028040;28;20419;-75
2023/09/12 07:11:08;;;;;;;8.30;3.13;;;;;;;17.86;67.06;93367.78;5028434;28;20064;-75
2023/09/12 07:13:35;;;;;;;7.03;3.28;;;;;;;18.11;66.34;93366.41;5028532;28;20454;-75
2023/09/12 07:16:03;;;;;;;9.27;2.85;;;;;;;18.41;65.67;93370.16;5028970;28;20138;-75
2023/09/12 07:18:32;;;;;;;6.75;2.47;;;;;;;18.48;63.91;93365.53;5028092;28;20124;-74
2023/09/12 07:21:00;;;;;;;9.40;2.58;;;;;;;18.49;64.21;93374.91;5032593;28;20056;-74
2023/09/12 07:23:27;;;;;;;5.35;2.47;;;;;;;18.57;62.74;93363.22;5029262;28;20054;-74
2023/09/12 07:25:57;;;;;;;8.48;3.55;;;;;;;18.79;63.06;93364.84;5027487;28;20606;-74
2023/09/12 07:28:24;;;;;;;7.53;2.75;;;;;;;18.87;62.60;93366.94;5036724;28;20044;-75
2023/09/12 07:30:50;;;;;;;9.10;2.50;;;;;;;19.07;62.18;93355.78;5038314;28;20048;-74
2023/09/12 07:33:17;;;;;;;7.97;2.90;;;;;;;19.35;60.86;93371.19;5045918;28;20048;-75
2023/09/12 07:35:44;;;;;;;8.07;2.70;;;;;;;19.65;58.82;93359.19;5036224;28;20041;-75
2023/09/12 07:38:10;;;;;;;7.80;2.78;;;;;;;20.01;58.46;93374.78;5028052;28;21222;-75
2023/09/12 07:40:37;;;;;;;11.52;3.00;;;;;;;20.22;57.15;93371.34;5029399;28;20049;-75
2023/09/12 07:43:07;;;;;;;7.70;2.38;;;;;;;20.41;54.44;93363.72;5027539;28;20053;-75
2023/09/12 07:45:36;;;;;;;8.60;2.55;;;;;;;20.69;55.75;93364.88;5027717;28;20060;-75
2023/09/12 07:48:04;;;;;;;6.43;2.53;;;;;;;21.01;56.50;93360.28;5025762;28;20255;-75
2023/09/12 07:50:31;;;;;;;5.95;2.60;;;;;;;21.19;55.44;93365.91;5027005;28;20052;-76
2023/09/12 07:52:58;;;;;;;5.28;2.25;;;;;;;21.51;53.43;93362.03;5028018;28;20466;-75
2023/09/12 07:55:25;;;;;;;11.73;4.93;;;;;;;21.81;55.46;93359.44;5027465;28;20061;-76
2023/09/12 07:57:52;;;;;;;11.40;3.33;;;;;;;22.11;54.45;93365.41;5029160;28;20053;-75
2023/09/12 08:00:21;;;;;;;10.05;2.53;;;;;;;22.27;51.29;93364.19;5029181;28;20092;-75
2023/09/12 08:02:48;;;;;;;4.90;2.40;;;;;;;22.42;53.23;93360.63;5028610;28;20106;-77
2023/09/12 08:05:15;;;;;;;5.95;2.67;;;;;;;22.62;50.61;93344.97;5030449;28;20052;-76
2023/09/12 08:07:42;;;;;;;5.05;2.20;;;;;;;22.95;52.29;93361.56;5028756;28;20052;-76
2023/09/12 08:10:09;;;;;;;4.97;2.05;;;;;;;23.14;48.61;93365.22;5027109;28;20119;-76
2023/09/12 08:12:38;;;;;;;11.60;2.45;;;;;;;23.29;46.96;93369.47;5028592;28;20041;-76
2023/09/12 08:15:06;;;;;;;4.85;1.95;;;;;;;23.12;46.56;93370.75;5028585;28;20053;-76
2023/09/12 08:17:34;;;;;;;6.53;2.58;;;;;;;23.11;47.13;93369.19;5025576;28;20045;-75
2023/09/12 08:20:00;;;;;;;9.85;2.85;;;;;;;23.36;48.55;93364.66;5031640;28;20053;-75
2023/09/12 08:22:29;;;;;;;5.20;2.50;;;;;;;23.64;47.90;93372.59;5031784;28;20045;-76
2023/09/12 08:24:55;;;;;;;6.97;2.70;;;;;;;23.78;47.06;93362.13;5030045;28;20663;-76
2023/09/12 08:27:23;;;;;;;10.27;2.53;;;;;;;24.02;48.80;93366.44;5030341;28;20056;-76
2023/09/12 08:29:50;;;;;;;7.75;2.33;;;;;;;24.17;45.47;93367.25;5032268;28;20052;-76
2023/09/12 08:32:16;;;;;;;8.23;2.30;;;;;;;24.50;46.97;93361.91;5027509;28;20079;-76
2023/09/12 08:34:45;;;;;;;4.15;1.88;;;;;;;24.62;43.17;93367.44;5030945;28;20049;-76
2023/09/12 08:37:11;;;;;;;5.90;2.03;;;;;;;24.78;45.59;93359.25;5036503;28;20057;-75
2023/09/12 08:39:42;;;;;;;5.15;2.53;;;;;;;24.91;42.30;93362.94;5030983;28;20049;-76
2023/09/12 08:42:13;;;;;;;8.23;2.10;;;;;;;25.08;44.84;93343.91;5030795;28;20463;-76
2023/09/12 08:44:40;;;;;;;8.10;2.67;;;;;;;25.40;42.28;93355.25;5032089;28;20137;-76
2023/09/12 08:47:09;;;;;;;4.80;1.52;;;;;;;25.58;41.42;93360.66;5027495;28;20439;-76
2023/09/12 08:49:36;;;;;;;6.20;1.60;;;;;;;25.46;40.61;93359.31;5026505;28;20438;-76
2023/09/12 08:52:05;;;;;;;5.57;1.52;;;;;;;25.79;42.38;93360.16;5031213;28;20049;-76
2023/09/12 08:54:32;;;;;;;5.60;3.10;;;;;;;25.53;41.93;93352.84;5032844;28;20112;-76
2023/09/12 08:56:58;;;;;;;8.02;2.35;;;;;;;25.67;41.11;93360.69;5027487;28;20099;-76
2023/09/12 08:59:27;;;;;;;6.45;2.53;;;;;;;25.31;40.53;93363.09;5027636;28;20050;-76
2023/09/12 09:01:55;;;;;;;5.82;1.50;;;;;;;25.16;41.55;93343.19;5027786;28;20081;-76
2023/09/12 09:04:26;;;;;;;7.63;1.83;;;;;;;25.46;41.20;93356.69;5029678;28;20612;-76
2023/09/12 09:06:54;;;;;;;7.07;2.47;;;;;;;25.22;41.39;93354.34;5025816;28;20119;-75
2023/09/12 09:09:23;;;;;;;5.80;2.05;;;;;;;25.12;41.92;93344.09;5037217;28;20094;-75
2023/09/12 09:11:50;;;;;;;5.28;2.53;;;;;;;24.93;41.92;93351.06;5027950;28;20133;-76
2023/09/12 09:14:17;;;;;;;4.97;1.73;;;;;;;25.02;41.46;93350.34;5027590;28;20041;-75
2023/09/12 09:16:44;;;;;;;3.80;1.60;;;;;;;25.12;42.35;93352.00;5041800;28;20056;-76
2023/09/12 09:19:10;;;;;;;4.32;1.85;;;;;;;25.51;41.56;93345.28;5032660;28;20465;-76
2023/09/12 09:21:40;;;;;;;6.00;1.70;;;;;;;25.92;41.49;93342.72;5031478;28;20107;-76
2023/09/12 09:24:09;;;;;;;3.72;1.90;;;;;;;26.04;39.72;93348.19;5031780;28;20063;-76
2023/09/12 09:26:45;;;;;;;7.50;1.90;;;;;;;26.37;40.60;93350.50;5032642;28;20053;-76
2023/09/12 09:29:15;;;;;;;6.28;1.92;;;;;;;26.62;40.07;93344.81;5036006;28;20046;-76
2023/09/12 11:16:34;;;;;;;9.88;2.28;;;;;;;27.92;34.68;93261.69;5145950;27;20374;-75
2023/09/12 11:19:18;;;;;;;16.38;2.83;;;;;;;28.35;35.72;93273.91;5146135;27;20072;-76
2023/09/12 11:21:46;;;;;;;8.10;2.38;;;;;;;28.59;33.89;93279.66;5142314;27;20495;-76
2023/09/12 11:24:13;;;;;;;4.43;1.52;;;;;;;28.71;33.72;93278.94;5136747;27;20047;-75
2023/09/12 11:27:00;;;;;;;4.82;1.90;;;;;;;28.52;33.95;93266.97;5138024;27;20047;-76
2023/09/12 11:29:31;;;;;;;5.20;2.00;;;;;;;28.42;32.82;93254.91;5136092;27;20046;-78
2023/09/12 11:32:02;;;;;;;4.93;1.73;;;;;;;28.74;33.58;93263.22;5136455;27;20134;-77
2023/09/12 11:34:31;;;;;;;4.68;1.90;;;;;;;29.07;32.55;93261.72;5145920;27;20594;-76
2023/09/12 11:37:00;;;;;;;5.88;1.85;;;;;;;29.12;32.69;93258.09;5145639;27;20042;-76
2023/09/12 11:39:30;;;;;;;3.75;1.85;;;;;;;29.18;32.13;93257.59;5132935;27;20051;-76
2023/09/12 11:41:57;;;;;;;4.60;1.80;;;;;;;27.80;33.04;93263.13;5146116;27;20051;-77
2023/09/12 11:44:26;;;;;;;6.82;1.90;;;;;;;28.24;32.92;93255.00;5143084;27;20078;-76
2023/09/12 11:46:54;;;;;;;5.07;1.67;;;;;;;28.43;32.28;93258.31;5135867;27;20131;-75
2023/09/12 11:49:22;;;;;;;6.38;2.42;;;;;;;28.52;33.37;93243.19;5145189;27;20499;-76
2023/09/12 11:51:50;;;;;;;6.05;1.77;;;;;;;28.91;33.55;93250.97;5132579;27;20096;-76
2023/09/12 11:54:20;;;;;;;5.40;1.75;;;;;;;28.43;32.38;93245.91;5145788;27;20147;-77
2023/09/12 11:56:48;;;;;;;7.57;1.90;;;;;;;28.45;32.32;93235.00;5145977;27;20135;-76
2023/09/12 11:59:18;;;;;;;9.65;2.10;;;;;;;28.20;33.50;93238.25;5140444;27;20418;-77
2023/09/12 12:01:45;;;;;;;3.90;1.67;;;;;;;28.57;33.60;93245.63;5134852;27;20055;-76
2023/09/12 12:04:12;;;;;;;3.90;1.33;;;;;;;28.30;33.22;93244.25;5135814;27;20061;-76
2023/09/12 12:19:58;;;;;;;6.68;1.98;;;;;;;29.89;33.16;93238.28;5104686;27;20388;-76
2023/09/12 12:22:25;;;;;;;5.22;1.80;;;;;;;30.14;33.54;93227.72;5098136;28;20512;-76
2023/09/12 12:24:52;;;;;;;8.18;2.33;;;;;;;30.31;32.38;93236.50;5085808;28;20044;-76
2023/09/12 12:27:19;;;;;;;5.50;1.70;;;;;;;29.63;30.80;93233.31;5098992;28;20040;-77
2023/09/12 12:29:46;;;;;;;6.70;2.00;;;;;;;29.31;32.04;93221.34;5098376;28;20059;-77
2023/09/12 12:32:16;;;;;;;8.00;2.25;;;;;;;28.52;32.49;93216.75;5093035;28;20665;-77
2023/09/12 12:34:48;;;;;;;3.67;1.65;;;;;;;28.44;32.82;93221.00;5084710;28;20133;-76
2023/09/12 12:37:16;;;;;;;3.50;1.75;;;;;;;28.54;32.70;93222.50;5086854;28;20047;-76
2023/09/12 12:39:43;;;;;;;6.47;1.92;;;;;;;28.56;31.93;93206.31;5084389;28;20048;-76
2023/09/12 12:42:10;;;;;;;4.35;2.13;;;;;;;28.94;32.79;93216.72;5089624;28;20128;-76
2023/09/12 12:44:40;;;;;;;12.40;2.30;;;;;;;29.09;31.53;93219.88;5089510;28;20087;-76
2023/09/12 12:47:09;;;;;;;6.18;1.98;;;;;;;29.21;31.48;93213.84;5086394;28;20040;-78
2023/09/12 12:49:40;;;;;;;5.32;1.83;;;;;;;29.45;30.38;93214.97;5083561;28;20098;-78
2023/09/12 12:52:07;;;;;;;4.30;1.67;;;;;;;29.45;30.83;93210.47;5084147;28;20045;-78
2023/09/12 12:54:35;;;;;;;5.10;2.45;;;;;;;29.44;30.80;93208.13;5083558;28;20070;-77
2023/09/12 12:57:02;;;;;;;5.22;1.70;;;;;;;29.59;31.19;93218.09;5083434;28;20080;-78
2023/09/12 12:59:34;;;;;;;8.15;2.13;;;;;;;29.65;31.85;93200.13;5085151;28;20045;-77
2023/09/12 13:02:01;;;;;;;7.88;1.98;;;;;;;29.20;31.30;93194.53;5093364;28;20055;-77
2023/09/12 13:04:27;;;;;;;3.75;1.83;;;;;;;28.56;31.57;93212.38;5088207;28;20048;-77
2023/09/12 13:06:54;;;;;;;3.88;1.65;;;;;;;28.74;31.75;93202.41;5090774;28;20505;-78
2023/09/12 13:09:21;;;;;;;3.97;1.73;;;;;;;28.80;32.05;93201.13;5094041;28;20128;-78
2023/09/12 13:11:49;;;;;;;4.35;2.13;;;;;;;28.87;31.78;93203.28;5083719;28;20523;-77
2023/09/12 13:14:15;;;;;;;5.15;1.80;;;;;;;28.93;31.92;93201.22;5083431;28;20138;-77
2023/09/12 13:16:42;;;;;;;4.80;2.00;;;;;;;29.12;31.63;93200.72;5090035;28;20136;-78
2023/09/12 13:19:10;;;;;;;7.35;2.85;;;;;;;29.30;30.93;93200.50;5085296;28;20146;-78
2023/09/12 13:21:37;;;;;;;5.95;1.83;;;;;;;29.24;31.45;93199.19;5070773;28;20533;-77
2023/09/12 13:24:05;;;;;;;5.82;2.10;;;;;;;29.32;31.38;93199.09;5080119;28;20048;-77
2023/09/12 13:26:31;;;;;;;4.90;1.83;;;;;;;28.98;31.84;93195.72;5076812;28;20117;-78
2023/09/12 13:29:00;;;;;;;3.58;1.73;;;;;;;28.43;33.29;93194.91;5075785;28;20056;-77
2023/09/12 13:31:26;;;;;;;7.20;2.08;;;;;;;28.38;33.96;93185.31;5069768;28;20084;-77